sensor_id;sensor_type;location;lat;lon;timestamp;pressure;altitude;pressure_sealevel;temperature;humidity
68986;BME280;56035;37.534;-122.308;2023-05-27T00:01:59;101193.69;;;15.45;100.00
68986;BME280;56035;37.534;-122.308;2023-05-27T00:04:25;101196.69;;;15.38;100.00
68986;BME280;56035;37.534;-122.308;2023-05-27T00:06:51;101188.06;;;15.35;100.00
68986;BME280;56035;37.534;-122.308;2023-05-27T00:09:16;101189.72;;;15.36;100.00
68986;BME280;56035;37.534;-122.308;2023-05-27T00:11:42;101189.41;;;15.32;100.00
68986;BME280;56035;37.534;-122.308;2023-05-27T00:14:08;101178.59;;;15.31;100.00
68986;BME280;56035;37.534;-122.308;2023-05-27T00:16:34;101184.34;;;15.24;100.00
68986;BME280;56035;37.534;-122.308;2023-05-27T00:19:02;101181.28;;;15.20;100.00
68986;BME280;56035;37.534;-122.308;2023-05-27T00:21:28;101177.38;;;15.21;100.00
68986;BME280;56035;37.534;-122.308;2023-05-27T00:23:54;101187.06;;;15.19;100.00
68986;BME280;56035;37.534;-122.308;2023-05-27T00:26:23;101178.88;;;15.07;100.00
68986;BME280;56035;37.534;-122.308;2023-05-27T00:28:48;101175.81;;;15.04;100.00
68986;BME280;56035;37.534;-122.308;2023-05-27T00:31:14;101171.63;;;15.01;100.00
68986;BME280;56035;37.534;-122.308;2023-05-27T00:33:40;101185.44;;;14.96;100.00
68986;BME280;56035;37.534;-122.308;2023-05-27T00:36:08;101180.69;;;14.91;100.00
68986;BME280;56035;37.534;-122.308;2023-05-27T00:38:34;101173.50;;;14.95;100.00
68986;BME280;56035;37.534;-122.308;2023-05-27T00:41:00;101179.91;;;14.96;100.00
68986;BME280;56035;37.534;-122.308;2023-05-27T00:43:28;101174.94;;;14.98;100.00
68986;BME280;56035;37.534;-122.308;2023-05-27T00:45:56;101173.31;;;15.02;100.00
68986;BME280;56035;37.534;-122.308;2023-05-27T00:48:22;101174.84;;;14.88;100.00
68986;BME280;56035;37.534;-122.308;2023-05-27T00:50:48;101177.59;;;14.88;100.00
68986;BME280;56035;37.534;-122.308;2023-05-27T00:53:15;101176.91;;;14.75;100.00
68986;BME280;56035;37.534;-122.308;2023-05-27T00:55:41;101169.53;;;14.64;100.00
68986;BME280;56035;37.534;-122.308;2023-05-27T00:58:06;101166.66;;;14.54;100.00
68986;BME280;56035;37.534;-122.308;2023-05-27T01:00:34;101156.84;;;14.46;100.00
68986;BME280;56035;37.534;-122.308;2023-05-27T01:03:03;101157.09;;;14.45;100.00
68986;BME280;56035;37.534;-122.308;2023-05-27T01:05:29;101161.56;;;14.46;100.00
68986;BME280;56035;37.534;-122.308;2023-05-27T01:10:50;101168.44;;;14.43;100.00
68986;BME280;56035;37.534;-122.308;2023-05-27T01:13:20;101166.19;;;14.40;100.00
68986;BME280;56035;37.534;-122.308;2023-05-27T01:15:49;101162.00;;;14.38;100.00
68986;BME280;56035;37.534;-122.308;2023-05-27T01:18:18;101165.88;;;14.37;100.00
68986;BME280;56035;37.534;-122.308;2023-05-27T01:20:47;101159.16;;;14.33;100.00
68986;BME280;56035;37.534;-122.308;2023-05-27T01:23:13;101165.59;;;14.16;100.00
68986;BME280;56035;37.534;-122.308;2023-05-27T01:25:39;101168.56;;;14.10;100.00
68986;BME280;56035;37.534;-122.308;2023-05-27T01:28:05;101178.13;;;14.02;100.00
68986;BME280;56035;37.534;-122.308;2023-05-27T01:30:31;101171.94;;;13.95;100.00
68986;BME280;56035;37.534;-122.308;2023-05-27T01:37:59;101172.81;;;13.78;100.00
68986;BME280;56035;37.534;-122.308;2023-05-27T01:40:26;101179.69;;;13.76;100.00
68986;BME280;56035;37.534;-122.308;2023-05-27T01:42:56;101176.56;;;13.72;100.00
68986;BME280;56035;37.534;-122.308;2023-05-27T01:45:22;101179.53;;;13.66;100.00
68986;BME280;56035;37.534;-122.308;2023-05-27T01:47:48;101170.44;;;13.53;100.00
68986;BME280;56035;37.534;-122.308;2023-05-27T01:50:14;101163.91;;;13.43;100.00
68986;BME280;56035;37.534;-122.308;2023-05-27T01:52:39;101170.78;;;13.40;100.00
68986;BME280;56035;37.534;-122.308;2023-05-27T01:55:06;101176.00;;;13.37;100.00
68986;BME280;56035;37.534;-122.308;2023-05-27T01:57:33;101173.38;;;13.30;100.00
68986;BME280;56035;37.534;-122.308;2023-05-27T01:59:59;101182.31;;;13.20;100.00
68986;BME280;56035;37.534;-122.308;2023-05-27T02:02:25;101179.38;;;13.10;100.00
68986;BME280;56035;37.534;-122.308;2023-05-27T02:04:50;101179.88;;;13.07;100.00
68986;BME280;56035;37.534;-122.308;2023-05-27T02:07:16;101189.41;;;12.99;100.00
68986;BME280;56035;37.534;-122.308;2023-05-27T02:09:42;101187.75;;;12.98;100.00
68986;BME280;56035;37.534;-122.308;2023-05-27T02:12:10;101192.22;;;12.87;100.00
68986;BME280;56035;37.534;-122.308;2023-05-27T02:14:37;101204.97;;;12.88;100.00
68986;BME280;56035;37.534;-122.308;2023-05-27T02:17:04;101201.50;;;12.81;100.00
68986;BME280;56035;37.534;-122.308;2023-05-27T02:19:30;101202.25;;;12.77;100.00
68986;BME280;56035;37.534;-122.308;2023-05-27T02:21:56;101205.03;;;12.65;100.00
68986;BME280;56035;37.534;-122.308;2023-05-27T02:24:21;101214.34;;;12.59;100.00
68986;BME280;56035;37.534;-122.308;2023-05-27T02:26:47;101217.31;;;12.57;100.00
68986;BME280;56035;37.534;-122.308;2023-05-27T02:29:13;101212.91;;;12.56;100.00
68986;BME280;56035;37.534;-122.308;2023-05-27T02:31:39;101214.97;;;12.49;100.00
68986;BME280;56035;37.534;-122.308;2023-05-27T02:34:04;101217.84;;;12.43;100.00
68986;BME280;56035;37.534;-122.308;2023-05-27T02:36:30;101220.50;;;12.37;100.00
68986;BME280;56035;37.534;-122.308;2023-05-27T02:38:56;101225.91;;;12.32;100.00
68986;BME280;56035;37.534;-122.308;2023-05-27T02:41:22;101223.88;;;12.28;100.00
68986;BME280;56035;37.534;-122.308;2023-05-27T02:43:48;101232.28;;;12.21;100.00
68986;BME280;56035;37.534;-122.308;2023-05-27T02:46:13;101230.75;;;12.13;100.00
68986;BME280;56035;37.534;-122.308;2023-05-27T02:48:39;101232.91;;;12.11;100.00
68986;BME280;56035;37.534;-122.308;2023-05-27T02:51:05;101242.50;;;12.09;100.00
68986;BME280;56035;37.534;-122.308;2023-05-27T02:53:31;101233.50;;;12.02;100.00
68986;BME280;56035;37.534;-122.308;2023-05-27T02:55:57;101236.63;;;11.93;100.00
68986;BME280;56035;37.534;-122.308;2023-05-27T02:58:23;101239.25;;;11.88;100.00
68986;BME280;56035;37.534;-122.308;2023-05-27T03:00:49;101238.06;;;11.84;100.00
68986;BME280;56035;37.534;-122.308;2023-05-27T03:03:14;101243.41;;;11.79;100.00
68986;BME280;56035;37.534;-122.308;2023-05-27T03:05:40;101246.91;;;11.75;100.00
68986;BME280;56035;37.534;-122.308;2023-05-27T03:08:06;101243.78;;;11.71;100.00
68986;BME280;56035;37.534;-122.308;2023-05-27T03:10:32;101253.00;;;11.65;100.00
68986;BME280;56035;37.534;-122.308;2023-05-27T03:12:58;101260.09;;;11.61;100.00
68986;BME280;56035;37.534;-122.308;2023-05-27T03:15:24;101259.09;;;11.55;100.00
68986;BME280;56035;37.534;-122.308;2023-05-27T03:17:50;101270.16;;;11.55;100.00
68986;BME280;56035;37.534;-122.308;2023-05-27T03:20:17;101271.69;;;11.51;100.00
68986;BME280;56035;37.534;-122.308;2023-05-27T03:22:44;101267.97;;;11.45;100.00
68986;BME280;56035;37.534;-122.308;2023-05-27T03:25:10;101271.19;;;11.42;100.00
68986;BME280;56035;37.534;-122.308;2023-05-27T03:27:36;101271.03;;;11.37;100.00
68986;BME280;56035;37.534;-122.308;2023-05-27T03:30:05;101278.09;;;11.33;100.00
68986;BME280;56035;37.534;-122.308;2023-05-27T03:32:31;101267.78;;;11.29;100.00
68986;BME280;56035;37.534;-122.308;2023-05-27T03:34:57;101262.50;;;11.27;100.00
68986;BME280;56035;37.534;-122.308;2023-05-27T03:37:22;101267.41;;;11.25;100.00
68986;BME280;56035;37.534;-122.308;2023-05-27T03:39:48;101277.22;;;11.21;100.00
68986;BME280;56035;37.534;-122.308;2023-05-27T03:42:14;101272.16;;;11.18;100.00
68986;BME280;56035;37.534;-122.308;2023-05-27T03:44:40;101275.16;;;11.16;100.00
68986;BME280;56035;37.534;-122.308;2023-05-27T03:47:06;101284.75;;;11.14;100.00
68986;BME280;56035;37.534;-122.308;2023-05-27T03:49:31;101284.38;;;11.10;100.00
68986;BME280;56035;37.534;-122.308;2023-05-27T03:51:57;101286.13;;;11.05;100.00
68986;BME280;56035;37.534;-122.308;2023-05-27T03:54:23;101281.69;;;11.04;100.00
68986;BME280;56035;37.534;-122.308;2023-05-27T03:56:49;101284.09;;;11.00;100.00
68986;BME280;56035;37.534;-122.308;2023-05-27T03:59:16;101296.66;;;10.96;100.00
68986;BME280;56035;37.534;-122.308;2023-05-27T04:01:46;101300.72;;;10.93;100.00
68986;BME280;56035;37.534;-122.308;2023-05-27T04:04:12;101303.94;;;10.90;100.00
68986;BME280;56035;37.534;-122.308;2023-05-27T04:06:38;101302.47;;;10.88;100.00
68986;BME280;56035;37.534;-122.308;2023-05-27T04:09:27;101305.69;;;10.85;100.00
68986;BME280;56035;37.534;-122.308;2023-05-27T04:11:52;101306.97;;;10.82;100.00
68986;BME280;56035;37.534;-122.308;2023-05-27T04:14:18;101304.72;;;10.79;100.00
68986;BME280;56035;37.534;-122.308;2023-05-27T04:16:45;101302.19;;;10.77;100.00
68986;BME280;56035;37.534;-122.308;2023-05-27T04:19:11;101315.34;;;10.75;100.00
68986;BME280;56035;37.534;-122.308;2023-05-27T04:21:36;101309.44;;;10.72;100.00
68986;BME280;56035;37.534;-122.308;2023-05-27T04:24:02;101316.03;;;10.71;100.00
68986;BME280;56035;37.534;-122.308;2023-05-27T04:26:28;101308.00;;;10.69;100.00
68986;BME280;56035;37.534;-122.308;2023-05-27T04:28:55;101310.16;;;10.67;100.00
68986;BME280;56035;37.534;-122.308;2023-05-27T04:31:24;101323.28;;;10.65;100.00
68986;BME280;56035;37.534;-122.308;2023-05-27T04:33:54;101327.13;;;10.64;100.00
68986;BME280;56035;37.534;-122.308;2023-05-27T04:36:20;101330.13;;;10.63;100.00
68986;BME280;56035;37.534;-122.308;2023-05-27T04:38:50;101329.72;;;10.59;100.00
68986;BME280;56035;37.534;-122.308;2023-05-27T04:41:16;101336.09;;;10.60;100.00
68986;BME280;56035;37.534;-122.308;2023-05-27T04:43:45;101323.81;;;10.55;100.00
68986;BME280;56035;37.534;-122.308;2023-05-27T04:46:11;101324.28;;;10.52;100.00
68986;BME280;56035;37.534;-122.308;2023-05-27T04:48:37;101326.19;;;10.52;100.00
68986;BME280;56035;37.534;-122.308;2023-05-27T04:51:03;101321.78;;;10.51;100.00
68986;BME280;56035;37.534;-122.308;2023-05-27T04:53:29;101323.06;;;10.48;100.00
68986;BME280;56035;37.534;-122.308;2023-05-27T04:55:55;101328.81;;;10.47;100.00
68986;BME280;56035;37.534;-122.308;2023-05-27T04:58:22;101331.56;;;10.47;100.00
68986;BME280;56035;37.534;-122.308;2023-05-27T05:00:48;101332.41;;;10.47;100.00
68986;BME280;56035;37.534;-122.308;2023-05-27T05:03:19;101321.38;;;10.47;100.00
68986;BME280;56035;37.534;-122.308;2023-05-27T05:05:51;101318.63;;;10.47;100.00
68986;BME280;56035;37.534;-122.308;2023-05-27T05:08:18;101329.66;;;10.47;100.00
68986;BME280;56035;37.534;-122.308;2023-05-27T05:10:45;101331.78;;;10.45;100.00
68986;BME280;56035;37.534;-122.308;2023-05-27T05:13:11;101331.63;;;10.40;100.00
68986;BME280;56035;37.534;-122.308;2023-05-27T05:15:37;101329.72;;;10.41;100.00
68986;BME280;56035;37.534;-122.308;2023-05-27T05:18:03;101331.19;;;10.43;100.00
68986;BME280;56035;37.534;-122.308;2023-05-27T05:20:29;101331.63;;;10.40;100.00
68986;BME280;56035;37.534;-122.308;2023-05-27T05:22:55;101331.25;;;10.37;100.00
68986;BME280;56035;37.534;-122.308;2023-05-27T05:25:21;101328.25;;;10.38;100.00
68986;BME280;56035;37.534;-122.308;2023-05-27T05:27:47;101332.09;;;10.37;100.00
68986;BME280;56035;37.534;-122.308;2023-05-27T05:30:12;101331.25;;;10.37;100.00
68986;BME280;56035;37.534;-122.308;2023-05-27T05:32:38;101332.09;;;10.37;100.00
68986;BME280;56035;37.534;-122.308;2023-05-27T05:35:04;101331.25;;;10.37;100.00
68986;BME280;56035;37.534;-122.308;2023-05-27T05:37:30;101335.88;;;10.36;100.00
68986;BME280;56035;37.534;-122.308;2023-05-27T05:39:56;101338.03;;;10.34;100.00
68986;BME280;56035;37.534;-122.308;2023-05-27T05:42:22;101329.78;;;10.34;100.00
68986;BME280;56035;37.534;-122.308;2023-05-27T05:44:50;101330.84;;;10.33;100.00
68986;BME280;56035;37.534;-122.308;2023-05-27T05:47:16;101327.47;;;10.31;100.00
68986;BME280;56035;37.534;-122.308;2023-05-27T05:49:42;101333.00;;;10.31;100.00
68986;BME280;56035;37.534;-122.308;2023-05-27T05:52:08;101329.59;;;10.29;100.00
68986;BME280;56035;37.534;-122.308;2023-05-27T05:54:33;101328.78;;;10.28;100.00
68986;BME280;56035;37.534;-122.308;2023-05-27T05:57:00;101335.13;;;10.29;100.00
68986;BME280;56035;37.534;-122.308;2023-05-27T05:59:26;101337.66;;;10.30;100.00
68986;BME280;56035;37.534;-122.308;2023-05-27T06:01:52;101337.66;;;10.30;100.00
68986;BME280;56035;37.534;-122.308;2023-05-27T06:04:17;101333.44;;;10.28;100.00
68986;BME280;56035;37.534;-122.308;2023-05-27T06:06:43;101342.94;;;10.32;100.00
68986;BME280;56035;37.534;-122.308;2023-05-27T06:09:09;101345.69;;;10.32;100.00
68986;BME280;56035;37.534;-122.308;2023-05-27T06:11:35;101344.00;;;10.31;100.00
68986;BME280;56035;37.534;-122.308;2023-05-27T06:14:01;101338.50;;;10.31;100.00
68986;BME280;56035;37.534;-122.308;2023-05-27T06:16:27;101339.28;;;10.38;100.00
68986;BME280;56035;37.534;-122.308;2023-05-27T06:18:53;101348.22;;;10.34;100.00
68986;BME280;56035;37.534;-122.308;2023-05-27T06:21:20;101348.59;;;10.37;100.00
68986;BME280;56035;37.534;-122.308;2023-05-27T06:23:45;101349.44;;;10.38;100.00
68986;BME280;56035;37.534;-122.308;2023-05-27T06:26:11;101350.03;;;10.40;100.00
68986;BME280;56035;37.534;-122.308;2023-05-27T06:28:37;101350.91;;;10.40;100.00
68986;BME280;56035;37.534;-122.308;2023-05-27T06:31:03;101349.00;;;10.41;100.00
68986;BME280;56035;37.534;-122.308;2023-05-27T06:33:29;101347.72;;;10.43;100.00
68986;BME280;56035;37.534;-122.308;2023-05-27T06:35:55;101347.25;;;10.46;100.00
68986;BME280;56035;37.534;-122.308;2023-05-27T06:38:21;101341.25;;;10.49;100.00
68986;BME280;56035;37.534;-122.308;2023-05-27T06:40:48;101345.09;;;10.48;100.00
68986;BME280;56035;37.534;-122.308;2023-05-27T06:43:14;101339.00;;;10.46;100.00
68986;BME280;56035;37.534;-122.308;2023-05-27T06:45:40;101351.44;;;10.49;100.00
68986;BME280;56035;37.534;-122.308;2023-05-27T06:48:06;101347.00;;;10.48;100.00
68986;BME280;56035;37.534;-122.308;2023-05-27T06:50:32;101352.97;;;10.45;100.00
68986;BME280;56035;37.534;-122.308;2023-05-27T06:52:59;101351.06;;;10.45;100.00
68986;BME280;56035;37.534;-122.308;2023-05-27T06:55:25;101347.47;;;10.45;100.00
68986;BME280;56035;37.534;-122.308;2023-05-27T06:57:50;101350.47;;;10.43;100.00
68986;BME280;56035;37.534;-122.308;2023-05-27T07:00:16;101349.84;;;10.41;100.00
68986;BME280;56035;37.534;-122.308;2023-05-27T07:02:42;101353.66;;;10.40;100.00
68986;BME280;56035;37.534;-122.308;2023-05-27T07:05:08;101355.34;;;10.41;100.00
68986;BME280;56035;37.534;-122.308;2023-05-27T07:07:34;101359.56;;;10.44;100.00
68986;BME280;56035;37.534;-122.308;2023-05-27T07:10:00;101359.94;;;10.47;100.00
68986;BME280;56035;37.534;-122.308;2023-05-27T07:12:25;101360.53;;;10.49;100.00
68986;BME280;56035;37.534;-122.308;2023-05-27T07:14:51;101355.03;;;10.49;100.00
68986;BME280;56035;37.534;-122.308;2023-05-27T07:17:17;101353.34;;;10.48;100.00
68986;BME280;56035;37.534;-122.308;2023-05-27T07:19:43;101350.00;;;10.46;100.00
68986;BME280;56035;37.534;-122.308;2023-05-27T07:22:09;101343.03;;;10.44;100.00
68986;BME280;56035;37.534;-122.308;2023-05-27T07:24:34;101348.16;;;10.40;100.00
68986;BME280;56035;37.534;-122.308;2023-05-27T07:27:00;101351.38;;;10.37;100.00
68986;BME280;56035;37.534;-122.308;2023-05-27T07:29:26;101355.63;;;10.33;100.00
68986;BME280;56035;37.534;-122.308;2023-05-27T07:31:52;101348.88;;;10.29;100.00
68986;BME280;56035;37.534;-122.308;2023-05-27T07:34:18;101354.38;;;10.29;100.00
68986;BME280;56035;37.534;-122.308;2023-05-27T07:36:46;101363.50;;;10.29;100.00
68986;BME280;56035;37.534;-122.308;2023-05-27T07:39:11;101360.13;;;10.27;100.00
68986;BME280;56035;37.534;-122.308;2023-05-27T07:41:37;101354.38;;;10.29;100.00
68986;BME280;56035;37.534;-122.308;2023-05-27T07:44:03;101357.78;;;10.31;100.00
68986;BME280;56035;37.534;-122.308;2023-05-27T07:46:29;101352.88;;;10.33;100.00
68986;BME280;56035;37.534;-122.308;2023-05-27T07:48:55;101355.16;;;10.36;100.00
68986;BME280;56035;37.534;-122.308;2023-05-27T07:51:21;101348.59;;;10.37;100.00
68986;BME280;56035;37.534;-122.308;2023-05-27T07:53:47;101351.13;;;10.39;100.00
68986;BME280;56035;37.534;-122.308;2023-05-27T07:56:13;101346.44;;;10.39;100.00
68986;BME280;56035;37.534;-122.308;2023-05-27T07:58:39;101348.16;;;10.40;100.00
68986;BME280;56035;37.534;-122.308;2023-05-27T08:01:05;101349.00;;;10.41;100.00
68986;BME280;56035;37.534;-122.308;2023-05-27T08:03:31;101343.25;;;10.42;100.00
68986;BME280;56035;37.534;-122.308;2023-05-27T08:05:57;101340.50;;;10.42;100.00
68986;BME280;56035;37.534;-122.308;2023-05-27T08:08:22;101344.94;;;10.43;100.00
68986;BME280;56035;37.534;-122.308;2023-05-27T08:10:48;101352.13;;;10.44;100.00
68986;BME280;56035;37.534;-122.308;2023-05-27T08:13:14;101345.34;;;10.47;100.00
68986;BME280;56035;37.534;-122.308;2023-05-27T08:15:40;101339.84;;;10.47;100.00
68986;BME280;56035;37.534;-122.308;2023-05-27T08:18:05;101334.06;;;10.48;100.00
68986;BME280;56035;37.534;-122.308;2023-05-27T08:20:31;101339.13;;;10.51;100.00
68986;BME280;56035;37.534;-122.308;2023-05-27T08:22:57;101340.81;;;10.52;100.00
68986;BME280;56035;37.534;-122.308;2023-05-27T08:25:23;101339.13;;;10.51;100.00
68986;BME280;56035;37.534;-122.308;2023-05-27T08:27:49;101341.44;;;10.54;100.00
68986;BME280;56035;37.534;-122.308;2023-05-27T08:30:15;101334.84;;;10.55;100.00
68986;BME280;56035;37.534;-122.308;2023-05-27T08:32:42;101337.16;;;10.59;100.00
68986;BME280;56035;37.534;-122.308;2023-05-27T08:35:08;101337.97;;;10.59;100.00
68986;BME280;56035;37.534;-122.308;2023-05-27T08:37:34;101337.78;;;10.61;100.00
68986;BME280;56035;37.534;-122.308;2023-05-27T08:40:00;101333.94;;;10.62;100.00
68986;BME280;56035;37.534;-122.308;2023-05-27T08:42:26;101332.66;;;10.64;100.00
68986;BME280;56035;37.534;-122.308;2023-05-27T08:44:52;101329.66;;;10.66;100.00
68986;BME280;56035;37.534;-122.308;2023-05-27T08:47:18;101339.63;;;10.67;100.00
68986;BME280;56035;37.534;-122.308;2023-05-27T08:49:44;101345.72;;;10.69;100.00
68986;BME280;56035;37.534;-122.308;2023-05-27T08:52:10;101335.94;;;10.73;100.00
68986;BME280;56035;37.534;-122.308;2023-05-27T08:54:37;101341.47;;;10.73;100.00
68986;BME280;56035;37.534;-122.308;2023-05-27T08:57:07;101346.97;;;10.73;100.00
68986;BME280;56035;37.534;-122.308;2023-05-27T08:59:35;101344.81;;;10.75;100.00
68986;BME280;56035;37.534;-122.308;2023-05-27T09:02:01;101342.91;;;10.75;100.00
68986;BME280;56035;37.534;-122.308;2023-05-27T09:04:31;101338.25;;;10.76;100.00
68986;BME280;56035;37.534;-122.308;2023-05-27T09:06:57;101343.75;;;10.76;100.00
68986;BME280;56035;37.534;-122.308;2023-05-27T09:09:22;101329.13;;;10.75;100.00
68986;BME280;56035;37.534;-122.308;2023-05-27T09:11:48;101326.16;;;10.77;100.00
68986;BME280;56035;37.534;-122.308;2023-05-27T09:14:32;101325.06;;;10.78;100.00
68986;BME280;56035;37.534;-122.308;2023-05-27T09:17:04;101332.28;;;10.79;100.00
68986;BME280;56035;37.534;-122.308;2023-05-27T09:19:30;101335.03;;;10.79;100.00
68986;BME280;56035;37.534;-122.308;2023-05-27T09:21:56;101341.13;;;10.81;100.00
68986;BME280;56035;37.534;-122.308;2023-05-27T09:24:22;101329.03;;;10.82;100.00
68986;BME280;56035;37.534;-122.308;2023-05-27T09:26:52;101327.97;;;10.83;100.00
68986;BME280;56035;37.534;-122.308;2023-05-27T09:29:19;101331.56;;;10.84;100.00
68986;BME280;56035;37.534;-122.308;2023-05-27T09:31:45;101330.75;;;10.83;100.00
68986;BME280;56035;37.534;-122.308;2023-05-27T09:34:12;101333.50;;;10.83;100.00
68986;BME280;56035;37.534;-122.308;2023-05-27T09:36:44;101330.94;;;10.82;100.00
68986;BME280;56035;37.534;-122.308;2023-05-27T09:39:11;101331.34;;;10.85;100.00
68986;BME280;56035;37.534;-122.308;2023-05-27T09:41:40;101346.81;;;10.86;100.00
68986;BME280;56035;37.534;-122.308;2023-05-27T09:44:06;101344.06;;;10.86;100.00
68986;BME280;56035;37.534;-122.308;2023-05-27T09:46:32;101336.63;;;10.87;100.00
68986;BME280;56035;37.534;-122.308;2023-05-27T09:48:59;101343.44;;;10.84;100.00
68986;BME280;56035;37.534;-122.308;2023-05-27T09:51:28;101340.06;;;10.82;100.00
68986;BME280;56035;37.534;-122.308;2023-05-27T09:53:54;101326.91;;;10.84;100.00
68986;BME280;56035;37.534;-122.308;2023-05-27T09:56:23;101323.31;;;10.84;100.00
68986;BME280;56035;37.534;-122.308;2023-05-27T09:58:49;101325.81;;;10.85;100.00
68986;BME280;56035;37.534;-122.308;2023-05-27T10:01:15;101324.97;;;10.85;100.00
68986;BME280;56035;37.534;-122.308;2023-05-27T10:03:43;101322.00;;;10.86;100.00
68986;BME280;56035;37.534;-122.308;2023-05-27T10:06:11;101316.72;;;10.85;100.00
68986;BME280;56035;37.534;-122.308;2023-05-27T10:08:38;101313.50;;;10.88;100.00
68986;BME280;56035;37.534;-122.308;2023-05-27T10:11:04;101311.19;;;10.85;100.00
68986;BME280;56035;37.534;-122.308;2023-05-27T10:13:30;101317.56;;;10.85;100.00
68986;BME280;56035;37.534;-122.308;2023-05-27T10:15:56;101315.66;;;10.86;100.00
68986;BME280;56035;37.534;-122.308;2023-05-27T10:18:28;101313.97;;;10.85;100.00
68986;BME280;56035;37.534;-122.308;2023-05-27T10:20:56;101317.56;;;10.85;100.00
68986;BME280;56035;37.534;-122.308;2023-05-27T10:23:28;101319.25;;;10.86;100.00
68986;BME280;56035;37.534;-122.308;2023-05-27T10:25:56;101315.66;;;10.86;100.00
68986;BME280;56035;37.534;-122.308;2023-05-27T10:28:32;101299.72;;;10.88;100.00
68986;BME280;56035;37.534;-122.308;2023-05-27T10:31:05;101304.41;;;10.87;100.00
68986;BME280;56035;37.534;-122.308;2023-05-27T10:33:34;101304.41;;;10.87;100.00
68986;BME280;56035;37.534;-122.308;2023-05-27T10:36:43;101302.25;;;10.89;100.00
68986;BME280;56035;37.534;-122.308;2023-05-27T10:38:56;101296.75;;;10.89;100.00
68986;BME280;56035;37.534;-122.308;2023-05-27T10:41:22;101293.38;;;10.87;100.00
68986;BME280;56035;37.534;-122.308;2023-05-27T10:43:57;101292.53;;;10.87;100.00
68986;BME280;56035;37.534;-122.308;2023-05-27T10:46:24;101297.78;;;10.88;100.00
68986;BME280;56035;37.534;-122.308;2023-05-27T10:48:50;101288.69;;;10.88;100.00
68986;BME280;56035;37.534;-122.308;2023-05-27T10:51:15;101294.44;;;10.86;100.00
68986;BME280;56035;37.534;-122.308;2023-05-27T10:53:41;101298.88;;;10.87;100.00
68986;BME280;56035;37.534;-122.308;2023-05-27T10:56:07;101292.53;;;10.87;100.00
68986;BME280;56035;37.534;-122.308;2023-05-27T10:58:37;101292.16;;;10.83;100.00
68986;BME280;56035;37.534;-122.308;2023-05-27T11:01:10;101293.81;;;10.84;100.00
68986;BME280;56035;37.534;-122.308;2023-05-27T11:03:45;101295.97;;;10.82;100.00
68986;BME280;56035;37.534;-122.308;2023-05-27T11:06:13;101293.81;;;10.84;100.00
68986;BME280;56035;37.534;-122.308;2023-05-27T11:08:40;101301.25;;;10.84;100.00
68986;BME280;56035;37.534;-122.308;2023-05-27T11:11:07;101304.00;;;10.84;100.00
68986;BME280;56035;37.534;-122.308;2023-05-27T11:13:38;101297.66;;;10.83;100.00
68986;BME280;56035;37.534;-122.308;2023-05-27T11:16:05;101304.22;;;10.82;100.00
68986;BME280;56035;37.534;-122.308;2023-05-27T11:18:37;101302.34;;;10.83;100.00
68986;BME280;56035;37.534;-122.308;2023-05-27T11:21:04;101299.81;;;10.81;100.00
68986;BME280;56035;37.534;-122.308;2023-05-27T11:23:33;101292.38;;;10.82;100.00
68986;BME280;56035;37.534;-122.308;2023-05-27T11:25:59;101289.84;;;10.80;100.00
68986;BME280;56035;37.534;-122.308;2023-05-27T11:28:25;101290.94;;;10.79;100.00
68986;BME280;56035;37.534;-122.308;2023-05-27T11:30:51;101279.91;;;10.79;100.00
68986;BME280;56035;37.534;-122.308;2023-05-27T11:33:17;101285.88;;;10.76;100.00
68986;BME280;56035;37.534;-122.308;2023-05-27T11:35:42;101284.81;;;10.77;100.00
68986;BME280;56035;37.534;-122.308;2023-05-27T11:38:17;101281.22;;;10.76;100.00
68986;BME280;56035;37.534;-122.308;2023-05-27T11:40:43;101273.16;;;10.75;100.00
68986;BME280;56035;37.534;-122.308;2023-05-27T11:43:09;101275.31;;;10.73;100.00
68986;BME280;56035;37.534;-122.308;2023-05-27T11:45:36;101275.31;;;10.73;100.00
68986;BME280;56035;37.534;-122.308;2023-05-27T11:48:02;101271.94;;;10.71;100.00
68986;BME280;56035;37.534;-122.308;2023-05-27T11:50:28;101270.28;;;10.70;100.00
68986;BME280;56035;37.534;-122.308;2023-05-27T11:52:54;101267.72;;;10.68;100.00
68986;BME280;56035;37.534;-122.308;2023-05-27T11:55:21;101279.00;;;10.67;100.00
68986;BME280;56035;37.534;-122.308;2023-05-27T11:57:46;101272.28;;;10.63;100.00
68986;BME280;56035;37.534;-122.308;2023-05-27T12:00:12;101263.38;;;10.61;100.00
68986;BME280;56035;37.534;-122.308;2023-05-27T12:02:38;101264.47;;;10.60;100.00
68986;BME280;56035;37.534;-122.308;2023-05-27T12:05:04;101259.78;;;10.60;100.00
68986;BME280;56035;37.534;-122.308;2023-05-27T12:07:33;101255.31;;;10.59;100.00
68986;BME280;56035;37.534;-122.308;2023-05-27T12:10:01;101260.25;;;10.57;100.00
68986;BME280;56035;37.534;-122.308;2023-05-27T12:12:26;101267.44;;;10.58;100.00
68986;BME280;56035;37.534;-122.308;2023-05-27T12:14:52;101265.38;;;10.53;100.00
68986;BME280;56035;37.534;-122.308;2023-05-27T12:17:18;101270.25;;;10.51;100.00